sensor_id;sensor_type;location;lat;lon;timestamp;pressure;altitude;pressure_sealevel;temperature;humidity
21728;BME280;11026;50.560;17.852;2022-11-04T00:01:29;98857.72;;;11.74;72.89
21728;BME280;11026;50.560;17.852;2022-11-04T00:04:02;98853.38;;;11.73;72.64
21728;BME280;11026;50.560;17.852;2022-11-04T00:06:31;98851.47;;;11.75;72.37
21728;BME280;11026;50.560;17.852;2022-11-04T00:08:59;98849.22;;;11.69;72.39
21728;BME280;11026;50.560;17.852;2022-11-04T00:11:27;98839.34;;;11.71;72.85
21728;BME280;11026;50.560;17.852;2022-11-04T00:14:14;98853.28;;;11.74;72.33
21728;BME280;11026;50.560;17.852;2022-11-04T00:16:44;98855.25;;;11.71;72.63
21728;BME280;11026;50.560;17.852;2022-11-04T00:19:31;98855.19;;;11.72;72.46
21728;BME280;11026;50.560;17.852;2022-11-04T00:22:17;98844.31;;;11.77;72.55
21728;BME280;11026;50.560;17.852;2022-11-04T00:25:03;98837.09;;;11.79;72.05
21728;BME280;11026;50.560;17.852;2022-11-04T00:27:49;98830.94;;;11.78;72.04
21728;BME280;11026;50.560;17.852;2022-11-04T00:30:56;98833.72;;;11.77;72.04
21728;BME280;11026;50.560;17.852;2022-11-04T00:33:26;98830.38;;;11.73;72.40
21728;BME280;11026;50.560;17.852;2022-11-04T00:35:55;98824.81;;;11.78;72.25
21728;BME280;11026;50.560;17.852;2022-11-04T00:38:23;98820.34;;;11.78;72.61
21728;BME280;11026;50.560;17.852;2022-11-04T00:40:53;98823.84;;;11.79;72.72
21728;BME280;11026;50.560;17.852;2022-11-04T00:43:20;98815.91;;;11.79;72.38
21728;BME280;11026;50.560;17.852;2022-11-04T00:45:49;98813.25;;;11.79;72.84
21728;BME280;11026;50.560;17.852;2022-11-04T00:48:16;98823.84;;;11.79;72.70
21728;BME280;11026;50.560;17.852;2022-11-04T00:50:44;98811.44;;;11.79;72.67
21728;BME280;11026;50.560;17.852;2022-11-04T00:53:18;98803.28;;;11.84;72.97
21728;BME280;11026;50.560;17.852;2022-11-04T00:55:46;98811.38;;;11.81;73.19
21728;BME280;11026;50.560;17.852;2022-11-04T00:58:13;98802.47;;;11.82;72.68
21728;BME280;11026;50.560;17.852;2022-11-04T01:00:40;98797.78;;;11.87;72.83
21728;BME280;11026;50.560;17.852;2022-11-04T01:03:32;98785.59;;;11.85;72.80
21728;BME280;11026;50.560;17.852;2022-11-04T01:06:00;98791.63;;;11.87;73.16
21728;BME280;11026;50.560;17.852;2022-11-04T01:08:28;98787.53;;;11.81;72.92
21728;BME280;11026;50.560;17.852;2022-11-04T01:10:56;98779.44;;;11.84;72.56
21728;BME280;11026;50.560;17.852;2022-11-04T01:13:23;98773.19;;;11.85;72.84
21728;BME280;11026;50.560;17.852;2022-11-04T01:15:50;98763.53;;;11.84;72.57
21728;BME280;11026;50.560;17.852;2022-11-04T01:18:17;98753.94;;;11.81;72.90
21728;BME280;11026;50.560;17.852;2022-11-04T01:20:46;98764.81;;;11.77;73.20
21728;BME280;11026;50.560;17.852;2022-11-04T01:23:12;98755.25;;;11.74;73.48
21728;BME280;11026;50.560;17.852;2022-11-04T01:25:44;98748.53;;;11.69;73.51
21728;BME280;11026;50.560;17.852;2022-11-04T01:28:11;98738.50;;;11.74;73.46
21728;BME280;11026;50.560;17.852;2022-11-04T01:30:38;98757.34;;;11.69;73.61
21728;BME280;11026;50.560;17.852;2022-11-04T01:33:05;98746.75;;;11.69;73.26
21728;BME280;11026;50.560;17.852;2022-11-04T01:35:40;98754.41;;;11.74;73.40
21728;BME280;11026;50.560;17.852;2022-11-04T01:38:08;98750.06;;;11.73;73.90
21728;BME280;11026;50.560;17.852;2022-11-04T01:40:36;98731.69;;;11.70;74.04
21728;BME280;11026;50.560;17.852;2022-11-04T01:46:22;98729.03;;;11.70;73.91
21728;BME280;11026;50.560;17.852;2022-11-04T01:49:04;98734.91;;;11.75;73.71
21728;BME280;11026;50.560;17.852;2022-11-04T01:51:42;98736.03;;;11.71;74.00
21728;BME280;11026;50.560;17.852;2022-11-04T01:54:20;98729.78;;;11.72;73.98
21728;BME280;11026;50.560;17.852;2022-11-04T01:56:48;98732.34;;;11.73;73.61
21728;BME280;11026;50.560;17.852;2022-11-04T01:59:26;98728.56;;;11.77;73.50
21728;BME280;11026;50.560;17.852;2022-11-04T02:01:56;98717.97;;;11.77;73.12
21728;BME280;11026;50.560;17.852;2022-11-04T02:04:24;98733.44;;;11.85;73.22
21728;BME280;11026;50.560;17.852;2022-11-04T02:06:58;98725.56;;;11.84;73.21
21728;BME280;11026;50.560;17.852;2022-11-04T02:09:29;98729.47;;;11.92;72.58
21728;BME280;11026;50.560;17.852;2022-11-04T02:12:03;98721.50;;;11.92;72.51
21728;BME280;11026;50.560;17.852;2022-11-04T02:14:51;98714.78;;;12.01;72.13
21728;BME280;11026;50.560;17.852;2022-11-04T02:20:17;98711.06;;;12.03;71.79
21728;BME280;11026;50.560;17.852;2022-11-04T02:26:22;98691.28;;;12.09;70.89
21728;BME280;11026;50.560;17.852;2022-11-04T02:33:45;98689.59;;;12.08;70.87
21728;BME280;11026;50.560;17.852;2022-11-04T02:36:25;98689.78;;;12.05;70.55
21728;BME280;11026;50.560;17.852;2022-11-04T02:39:15;98687.88;;;12.07;69.99
21728;BME280;11026;50.560;17.852;2022-11-04T02:44:43;98677.25;;;12.07;69.90
21728;BME280;11026;50.560;17.852;2022-11-04T02:47:15;98686.94;;;12.08;69.73
21728;BME280;11026;50.560;17.852;2022-11-04T02:55:24;98683.22;;;12.11;69.50
21728;BME280;11026;50.560;17.852;2022-11-04T02:58:07;98684.53;;;12.18;69.22
21728;BME280;11026;50.560;17.852;2022-11-04T03:00:38;98686.47;;;12.16;68.47
21728;BME280;11026;50.560;17.852;2022-11-04T03:03:22;98675.84;;;12.16;68.67
21728;BME280;11026;50.560;17.852;2022-11-04T03:06:00;98682.31;;;12.12;68.64
21728;BME280;11026;50.560;17.852;2022-11-04T03:08:36;98674.63;;;12.07;68.95
21728;BME280;11026;50.560;17.852;2022-11-04T03:11:12;98670.94;;;12.10;68.47
21728;BME280;11026;50.560;17.852;2022-11-04T03:13:51;98668.09;;;12.13;68.30
21728;BME280;11026;50.560;17.852;2022-11-04T03:16:53;98674.53;;;12.09;68.24
21728;BME280;11026;50.560;17.852;2022-11-04T03:22:29;98674.53;;;12.09;67.79
21728;BME280;11026;50.560;17.852;2022-11-04T03:25:04;98677.75;;;12.14;67.92
21728;BME280;11026;50.560;17.852;2022-11-04T03:30:21;98672.63;;;12.11;67.89
21728;BME280;11026;50.560;17.852;2022-11-04T03:35:33;98679.91;;;12.07;67.87
21728;BME280;11026;50.560;17.852;2022-11-04T03:38:03;98673.97;;;12.03;68.07
21728;BME280;11026;50.560;17.852;2022-11-04T03:40:30;98680.56;;;12.11;68.29
21728;BME280;11026;50.560;17.852;2022-11-04T03:43:23;98671.31;;;12.03;67.74
21728;BME280;11026;50.560;17.852;2022-11-04T03:45:57;98670.75;;;11.98;68.34
21728;BME280;11026;50.560;17.852;2022-11-04T03:48:29;98663.00;;;11.95;68.27
21728;BME280;11026;50.560;17.852;2022-11-04T03:51:00;98658.75;;;11.93;68.34
21728;BME280;11026;50.560;17.852;2022-11-04T03:53:28;98652.69;;;11.91;68.19
21728;BME280;11026;50.560;17.852;2022-11-04T04:01:51;98647.84;;;11.97;68.32
21728;BME280;11026;50.560;17.852;2022-11-04T04:10:32;98650.09;;;12.03;68.24
21728;BME280;11026;50.560;17.852;2022-11-04T04:13:45;98644.72;;;12.05;68.31
21728;BME280;11026;50.560;17.852;2022-11-04T04:16:42;98639.13;;;12.10;68.07
21728;BME280;11026;50.560;17.852;2022-11-04T04:19:34;98649.19;;;12.04;67.99
21728;BME280;11026;50.560;17.852;2022-11-04T04:22:22;98638.88;;;12.00;68.21
21728;BME280;11026;50.560;17.852;2022-11-04T04:25:02;98637.16;;;11.99;68.29
21728;BME280;11026;50.560;17.852;2022-11-04T04:27:57;98637.72;;;12.04;67.86
21728;BME280;11026;50.560;17.852;2022-11-04T04:30:33;98638.28;;;12.09;67.47
21728;BME280;11026;50.560;17.852;2022-11-04T04:33:29;98633.63;;;12.13;67.59
21728;BME280;11026;50.560;17.852;2022-11-04T04:35:57;98636.66;;;12.06;67.82
21728;BME280;11026;50.560;17.852;2022-11-04T04:38:27;98637.81;;;12.02;67.63
21728;BME280;11026;50.560;17.852;2022-11-04T04:41:26;98636.16;;;12.14;67.35
21728;BME280;11026;50.560;17.852;2022-11-04T04:44:31;98639.13;;;12.10;66.99
21728;BME280;11026;50.560;17.852;2022-11-04T04:47:22;98625.09;;;12.07;67.09
21728;BME280;11026;50.560;17.852;2022-11-04T04:49:58;98627.66;;;12.09;67.66
21728;BME280;11026;50.560;17.852;2022-11-04T04:52:32;98625.50;;;12.01;67.66
21728;BME280;11026;50.560;17.852;2022-11-04T04:55:00;98622.97;;;12.00;67.96
21728;BME280;11026;50.560;17.852;2022-11-04T04:57:35;98614.91;;;12.01;67.91
21728;BME280;11026;50.560;17.852;2022-11-04T05:00:05;98619.94;;;11.92;68.23
21728;BME280;11026;50.560;17.852;2022-11-04T05:02:36;98618.72;;;11.97;68.37
21728;BME280;11026;50.560;17.852;2022-11-04T05:05:04;98621.34;;;11.97;68.26
21728;BME280;11026;50.560;17.852;2022-11-04T05:07:31;98617.00;;;11.96;68.15
21728;BME280;11026;50.560;17.852;2022-11-04T05:09:58;98622.31;;;11.96;68.21
21728;BME280;11026;50.560;17.852;2022-11-04T05:12:26;98613.59;;;11.94;68.36
21728;BME280;11026;50.560;17.852;2022-11-04T05:15:15;98618.53;;;12.00;68.80
21728;BME280;11026;50.560;17.852;2022-11-04T05:17:57;98611.22;;;12.04;68.81
21728;BME280;11026;50.560;17.852;2022-11-04T05:20:31;98614.13;;;11.99;68.66
21728;BME280;11026;50.560;17.852;2022-11-04T05:23:00;98619.25;;;12.02;68.51
21728;BME280;11026;50.560;17.852;2022-11-04T05:25:30;98619.06;;;12.05;68.65
21728;BME280;11026;50.560;17.852;2022-11-04T05:28:01;98611.13;;;12.05;68.83
21728;BME280;11026;50.560;17.852;2022-11-04T05:30:40;98596.91;;;12.06;68.77
21728;BME280;11026;50.560;17.852;2022-11-04T05:33:08;98615.56;;;12.05;68.86
21728;BME280;11026;50.560;17.852;2022-11-04T05:35:42;98613.75;;;12.05;68.95
21728;BME280;11026;50.560;17.852;2022-11-04T05:38:10;98608.94;;;11.98;69.16
21728;BME280;11026;50.560;17.852;2022-11-04T05:40:42;98602.03;;;11.95;69.37
21728;BME280;11026;50.560;17.852;2022-11-04T05:43:09;98598.25;;;11.99;69.55
21728;BME280;11026;50.560;17.852;2022-11-04T05:45:39;98601.31;;;11.93;70.28
21728;BME280;11026;50.560;17.852;2022-11-04T05:48:07;98597.69;;;11.94;71.12
21728;BME280;11026;50.560;17.852;2022-11-04T05:50:34;98595.25;;;11.91;72.10
21728;BME280;11026;50.560;17.852;2022-11-04T05:53:11;98602.44;;;11.89;72.53
21728;BME280;11026;50.560;17.852;2022-11-04T05:55:38;98601.69;;;11.87;72.88
21728;BME280;11026;50.560;17.852;2022-11-04T05:58:05;98601.69;;;11.87;73.56
21728;BME280;11026;50.560;17.852;2022-11-04T06:00:33;98593.44;;;11.77;74.42
21728;BME280;11026;50.560;17.852;2022-11-04T06:03:00;98593.34;;;11.79;74.97
21728;BME280;11026;50.560;17.852;2022-11-04T06:05:40;98596.94;;;11.78;75.17
21728;BME280;11026;50.560;17.852;2022-11-04T06:08:07;98603.19;;;11.77;75.47
21728;BME280;11026;50.560;17.852;2022-11-04T06:10:42;98609.25;;;11.79;75.67
21728;BME280;11026;50.560;17.852;2022-11-04T06:13:10;98604.34;;;11.73;75.98
21728;BME280;11026;50.560;17.852;2022-11-04T06:15:38;98610.38;;;11.75;76.25
21728;BME280;11026;50.560;17.852;2022-11-04T06:18:05;98610.69;;;11.70;77.03
21728;BME280;11026;50.560;17.852;2022-11-04T06:20:35;98607.53;;;11.78;77.04
21728;BME280;11026;50.560;17.852;2022-11-04T06:23:02;98603.19;;;11.77;77.17
21728;BME280;11026;50.560;17.852;2022-11-04T06:25:30;98605.94;;;11.75;77.68
21728;BME280;11026;50.560;17.852;2022-11-04T06:27:57;98601.22;;;11.80;78.10
21728;BME280;11026;50.560;17.852;2022-11-04T06:30:24;98600.38;;;11.80;78.29
21728;BME280;11026;50.560;17.852;2022-11-04T06:32:52;98605.94;;;11.90;78.40
21728;BME280;11026;50.560;17.852;2022-11-04T06:35:19;98606.31;;;11.98;77.56
21728;BME280;11026;50.560;17.852;2022-11-04T06:37:46;98604.41;;;12.00;77.76
21728;BME280;11026;50.560;17.852;2022-11-04T06:40:16;98613.00;;;12.03;77.72
21728;BME280;11026;50.560;17.852;2022-11-04T06:42:49;98613.00;;;12.03;77.52
21728;BME280;11026;50.560;17.852;2022-11-04T06:45:20;98612.63;;;12.10;77.65
21728;BME280;11026;50.560;17.852;2022-11-04T06:47:47;98610.91;;;12.09;76.99
21728;BME280;11026;50.560;17.852;2022-11-04T06:50:14;98604.97;;;12.05;77.55
21728;BME280;11026;50.560;17.852;2022-11-04T06:52:44;98598.69;;;12.06;77.40
21728;BME280;11026;50.560;17.852;2022-11-04T06:55:16;98599.47;;;12.08;77.91
21728;BME280;11026;50.560;17.852;2022-11-04T06:57:43;98595.22;;;12.05;77.32
21728;BME280;11026;50.560;17.852;2022-11-04T07:00:10;98587.44;;;12.02;77.34
21728;BME280;11026;50.560;17.852;2022-11-04T07:02:38;98586.09;;;12.10;77.73
21728;BME280;11026;50.560;17.852;2022-11-04T07:05:08;98586.66;;;12.15;77.59
21728;BME280;11026;50.560;17.852;2022-11-04T07:07:35;98592.53;;;12.20;77.53
21728;BME280;11026;50.560;17.852;2022-11-04T07:10:03;98586.91;;;12.24;77.00
21728;BME280;11026;50.560;17.852;2022-11-04T07:12:30;98583.19;;;12.27;77.12
21728;BME280;11026;50.560;17.852;2022-11-04T07:14:57;98587.66;;;12.26;77.01
21728;BME280;11026;50.560;17.852;2022-11-04T07:17:24;98582.47;;;12.38;77.26
21728;BME280;11026;50.560;17.852;2022-11-04T07:19:53;98582.59;;;12.36;76.35
21728;BME280;11026;50.560;17.852;2022-11-04T07:22:21;98588.31;;;12.43;76.86
21728;BME280;11026;50.560;17.852;2022-11-04T07:24:51;98585.16;;;12.50;77.18
21728;BME280;11026;50.560;17.852;2022-11-04T07:27:18;98588.13;;;12.46;76.86
21728;BME280;11026;50.560;17.852;2022-11-04T07:30:09;98590.81;;;12.59;75.60
21728;BME280;11026;50.560;17.852;2022-11-04T07:32:36;98591.75;;;12.58;76.49
21728;BME280;11026;50.560;17.852;2022-11-04T07:35:04;98584.75;;;12.57;75.75
21728;BME280;11026;50.560;17.852;2022-11-04T07:37:32;98587.72;;;12.52;75.44
21728;BME280;11026;50.560;17.852;2022-11-04T07:40:03;98587.94;;;12.62;76.12
21728;BME280;11026;50.560;17.852;2022-11-04T07:42:31;98587.56;;;12.68;75.50
21728;BME280;11026;50.560;17.852;2022-11-04T07:44:58;98581.28;;;12.69;74.65
21728;BME280;11026;50.560;17.852;2022-11-04T07:47:29;98588.63;;;12.78;74.91
21728;BME280;11026;50.560;17.852;2022-11-04T07:49:56;98577.69;;;12.83;74.47
21728;BME280;11026;50.560;17.852;2022-11-04T07:52:24;98584.84;;;12.95;73.67
21728;BME280;11026;50.560;17.852;2022-11-04T07:54:52;98571.31;;;12.85;73.55
21728;BME280;11026;50.560;17.852;2022-11-04T07:57:22;98575.66;;;12.86;73.89
21728;BME280;11026;50.560;17.852;2022-11-04T07:59:53;98579.72;;;12.92;73.64
21728;BME280;11026;50.560;17.852;2022-11-04T08:02:29;98571.66;;;12.93;73.75
21728;BME280;11026;50.560;17.852;2022-11-04T08:05:13;98565.94;;;12.99;73.49
21728;BME280;11026;50.560;17.852;2022-11-04T08:07:40;98567.41;;;12.91;73.16
21728;BME280;11026;50.560;17.852;2022-11-04T08:10:09;98570.16;;;12.89;73.53
21728;BME280;11026;50.560;17.852;2022-11-04T08:12:36;98576.31;;;12.90;73.64
21728;BME280;11026;50.560;17.852;2022-11-04T08:15:04;98576.09;;;12.93;73.94
21728;BME280;11026;50.560;17.852;2022-11-04T08:17:32;98574.94;;;12.84;74.18
21728;BME280;11026;50.560;17.852;2022-11-04T08:20:02;98573.34;;;12.94;74.90
21728;BME280;11026;50.560;17.852;2022-11-04T08:22:33;98569.44;;;13.00;74.11
21728;BME280;11026;50.560;17.852;2022-11-04T08:25:02;98582.69;;;13.00;74.72
21728;BME280;11026;50.560;17.852;2022-11-04T08:27:48;98571.66;;;12.93;75.00
21728;BME280;11026;50.560;17.852;2022-11-04T08:30:17;98579.09;;;12.88;74.97
21728;BME280;11026;50.560;17.852;2022-11-04T08:32:45;98572.09;;;12.87;75.53
21728;BME280;11026;50.560;17.852;2022-11-04T08:35:15;98561.47;;;12.87;76.13
21728;BME280;11026;50.560;17.852;2022-11-04T08:37:45;98563.81;;;12.79;76.66
21728;BME280;11026;50.560;17.852;2022-11-04T08:40:12;98565.28;;;12.83;77.60
21728;BME280;11026;50.560;17.852;2022-11-04T08:42:45;98565.94;;;12.99;77.02
21728;BME280;11026;50.560;17.852;2022-11-04T08:45:13;98565.47;;;13.05;76.89
21728;BME280;11026;50.560;17.852;2022-11-04T08:47:41;98566.84;;;12.98;77.27
21728;BME280;11026;50.560;17.852;2022-11-04T08:50:08;98558.56;;;12.90;77.69
21728;BME280;11026;50.560;17.852;2022-11-04T08:52:37;98564.00;;;13.01;78.28
21728;BME280;11026;50.560;17.852;2022-11-04T08:55:12;98560.50;;;13.01;78.72
21728;BME280;11026;50.560;17.852;2022-11-04T08:57:39;98557.63;;;13.17;79.19
21728;BME280;11026;50.560;17.852;2022-11-04T09:00:07;98554.66;;;13.21;79.33
21728;BME280;11026;50.560;17.852;2022-11-04T09:02:41;98557.13;;;13.24;79.53
21728;BME280;11026;50.560;17.852;2022-11-04T09:05:15;98551.94;;;13.23;80.02
21728;BME280;11026;50.560;17.852;2022-11-04T09:07:42;98561.97;;;13.18;80.12
21728;BME280;11026;50.560;17.852;2022-11-04T09:10:16;98547.66;;;13.08;80.66
21728;BME280;11026;50.560;17.852;2022-11-04T09:12:43;98548.50;;;13.21;80.71
21728;BME280;11026;50.560;17.852;2022-11-04T09:15:12;98557.25;;;13.23;80.29
21728;BME280;11026;50.560;17.852;2022-11-04T09:17:44;98553.28;;;13.16;80.94
21728;BME280;11026;50.560;17.852;2022-11-04T09:20:14;98567.34;;;13.31;80.59
21728;BME280;11026;50.560;17.852;2022-11-04T09:22:43;98555.31;;;13.25;80.16
21728;BME280;11026;50.560;17.852;2022-11-04T09:25:14;98554.66;;;13.34;80.41
21728;BME280;11026;50.560;17.852;2022-11-04T09:27:41;98546.69;;;13.34;80.09
21728;BME280;11026;50.560;17.852;2022-11-04T09:30:10;98557.25;;;13.23;80.44
21728;BME280;11026;50.560;17.852;2022-11-04T09:32:43;98560.41;;;13.15;80.91
21728;BME280;11026;50.560;17.852;2022-11-04T09:35:19;98543.84;;;13.12;81.12
21728;BME280;11026;50.560;17.852;2022-11-04T09:38:00;98557.63;;;13.17;80.84
21728;BME280;11026;50.560;17.852;2022-11-04T09:40:36;98558.47;;;13.17;80.64
21728;BME280;11026;50.560;17.852;2022-11-04T09:46:09;98547.03;;;13.42;80.52
21728;BME280;11026;50.560;17.852;2022-11-04T09:48:44;98553.56;;;13.49;79.78
21728;BME280;11026;50.560;17.852;2022-11-04T09:51:24;98547.53;;;13.47;79.48
21728;BME280;11026;50.560;17.852;2022-11-04T09:54:21;98545.25;;;13.67;78.57
21728;BME280;11026;50.560;17.852;2022-11-04T09:56:52;98531.22;;;13.89;78.81
21728;BME280;11026;50.560;17.852;2022-11-04T09:59:32;98539.41;;;13.98;77.59
21728;BME280;11026;50.560;17.852;2022-11-04T10:05:06;98544.66;;;13.87;77.55
21728;BME280;11026;50.560;17.852;2022-11-04T10:07:52;98551.59;;;13.77;77.51
21728;BME280;11026;50.560;17.852;2022-11-04T10:10:35;98532.91;;;13.66;77.50
21728;BME280;11026;50.560;17.852;2022-11-04T10:16:38;98536.59;;;13.76;77.36
21728;BME280;11026;50.560;17.852;2022-11-04T10:22:02;98535.88;;;13.74;78.12
21728;BME280;11026;50.560;17.852;2022-11-04T10:24:46;98536.47;;;13.77;78.01
21728;BME280;11026;50.560;17.852;2022-11-04T10:27:21;98532.53;;;13.83;78.39
21728;BME280;11026;50.560;17.852;2022-11-04T10:30:00;98541.41;;;13.71;78.21
21728;BME280;11026;50.560;17.852;2022-11-04T10:32:30;98535.06;;;13.61;78.02
21728;BME280;11026;50.560;17.852;2022-11-04T10:37:41;98534.13;;;13.49;79.04
21728;BME280;11026;50.560;17.852;2022-11-04T10:40:22;98526.56;;;13.56;78.99
21728;BME280;11026;50.560;17.852;2022-11-04T10:42:55;98520.44;;;13.79;78.21
21728;BME280;11026;50.560;17.852;2022-11-04T10:45:38;98518.97;;;13.75;77.70
21728;BME280;11026;50.560;17.852;2022-11-04T10:48:47;98511.69;;;13.90;77.93
21728;BME280;11026;50.560;17.852;2022-11-04T10:51:17;98518.91;;;14.12;77.00
21728;BME280;11026;50.560;17.852;2022-11-04T10:53:59;98511.41;;;14.17;76.05
21728;BME280;11026;50.560;17.852;2022-11-04T10:59:12;98528.19;;;14.30;76.98
21728;BME280;11026;50.560;17.852;2022-11-04T11:01:55;98526.13;;;14.34;76.06
21728;BME280;11026;50.560;17.852;2022-11-04T11:04:35;98524.63;;;14.89;75.00
21728;BME280;11026;50.560;17.852;2022-11-04T11:07:08;98524.63;;;15.34;72.02
21728;BME280;11026;50.560;17.852;2022-11-04T11:09:53;98535.03;;;15.14;72.10
21728;BME280;11026;50.560;17.852;2022-11-04T11:12:28;98532.50;;;15.13;71.88
21728;BME280;11026;50.560;17.852;2022-11-04T11:15:29;98519.41;;;15.32;72.27
21728;BME280;11026;50.560;17.852;2022-11-04T11:18:16;98521.47;;;15.17;71.29
21728;BME280;11026;50.560;17.852;2022-11-04T11:20:49;98520.75;;;15.15;72.59
21728;BME280;11026;50.560;17.852;2022-11-04T11:23:43;98512.75;;;15.04;71.75
21728;BME280;11026;50.560;17.852;2022-11-04T11:26:20;98508.25;;;14.71;71.61
21728;BME280;11026;50.560;17.852;2022-11-04T11:28:57;98502.16;;;14.69;72.41
21728;BME280;11026;50.560;17.852;2022-11-04T11:31:38;98497.56;;;14.60;73.09
21728;BME280;11026;50.560;17.852;2022-11-04T11:34:17;98495.66;;;14.62;72.14
21728;BME280;11026;50.560;17.852;2022-11-04T11:36:48;98483.53;;;14.58;72.39
21728;BME280;11026;50.560;17.852;2022-11-04T11:39:18;98487.81;;;14.47;71.96
21728;BME280;11026;50.560;17.852;2022-11-04T11:44:55;98489.78;;;14.45;73.23
21728;BME280;11026;50.560;17.852;2022-11-04T11:50:18;98479.81;;;14.36;72.92
21728;BME280;11026;50.560;17.852;2022-11-04T11:52:51;98480.66;;;14.37;73.94
21728;BME280;11026;50.560;17.852;2022-11-04T11:55:33;98478.84;;;14.26;74.19
21728;BME280;11026;50.560;17.852;2022-11-04T12:01:23;98478.47;;;14.31;75.59
21728;BME280;11026;50.560;17.852;2022-11-04T12:04:00;98483.97;;;14.16;75.25
21728;BME280;11026;50.560;17.852;2022-11-04T12:10:06;98487.06;;;13.99;75.12
21728;BME280;11026;50.560;17.852;2022-11-04T12:13:27;98468.84;;;13.82;75.97
21728;BME280;11026;50.560;17.852;2022-11-04T12:16:12;98473.56;;;13.78;76.11
21728;BME280;11026;50.560;17.852;2022-11-04T12:21:56;98479.19;;;13.97;76.18
21728;BME280;11026;50.560;17.852;2022-11-04T12:24:36;98486.88;;;13.89;76.07
21728;BME280;11026;50.560;17.852;2022-11-04T12:33:00;98469.94;;;13.79;76.86
21728;BME280;11026;50.560;17.852;2022-11-04T12:35:55;98479.03;;;13.88;77.38
21728;BME280;11026;50.560;17.852;2022-11-04T12:44:49;98470.56;;;13.83;77.29
21728;BME280;11026;50.560;17.852;2022-11-04T12:47:42;98470.94;;;13.89;77.49
21728;BME280;11026;50.560;17.852;2022-11-04T12:50:39;98458.53;;;14.01;77.63
21728;BME280;11026;50.560;17.852;2022-11-04T12:56:45;98464.69;;;14.37;75.90
21728;BME280;11026;50.560;17.852;2022-11-04T12:59:36;98456.13;;;14.44;74.93
21728;BME280;11026;50.560;17.852;2022-11-04T13:02:22;98452.97;;;14.39;74.13
21728;BME280;11026;50.560;17.852;2022-11-04T13:04:59;98453.94;;;14.27;74.67
21728;BME280;11026;50.560;17.852;2022-11-04T13:07:32;98454.97;;;14.13;74.62
21728;BME280;11026;50.560;17.852;2022-11-04T13:10:18;98456.06;;;14.11;75.44
21728;BME280;11026;50.560;17.852;2022-11-04T13:12:52;98460.00;;;14.05;75.69
21728;BME280;11026;50.560;17.852;2022-11-04T13:15:25;98460.88;;;14.06;75.76
21728;BME280;11026;50.560;17.852;2022-11-04T13:18:02;98463.94;;;13.88;75.91
21728;BME280;11026;50.560;17.852;2022-11-04T13:26:43;98471.75;;;13.78;77.49
21728;BME280;11026;50.560;17.852;2022-11-04T13:29:15;98476.09;;;13.80;77.02
21728;BME280;11026;50.560;17.852;2022-11-04T13:32:07;98484.41;;;13.75;77.60
21728;BME280;11026;50.560;17.852;2022-11-04T13:35:00;98488.47;;;13.68;78.42
21728;BME280;11026;50.560;17.852;2022-11-04T13:38:00;98485.97;;;13.53;79.00
21728;BME280;11026;50.560;17.852;2022-11-04T13:40:50;98510.78;;;13.41;78.90
21728;BME280;11026;50.560;17.852;2022-11-04T13:43:36;98512.16;;;13.34;79.69
21728;BME280;11026;50.560;17.852;2022-11-04T13:48:55;98506.00;;;13.21;79.90
21728;BME280;11026;50.560;17.852;2022-11-04T13:51:40;98502.72;;;13.17;80.44
21728;BME280;11026;50.560;17.852;2022-11-04T13:57:08;98498.25;;;13.18;81.31
21728;BME280;11026;50.560;17.852;2022-11-04T14:02:42;98498.16;;;13.19;81.39
21728;BME280;11026;50.560;17.852;2022-11-04T14:10:58;98480.31;;;13.09;83.10
21728;BME280;11026;50.560;17.852;2022-11-04T14:18:46;98476.53;;;12.87;85.83
21728;BME280;11026;50.560;17.852;2022-11-04T14:21:22;98464.44;;;12.83;86.37
21728;BME280;11026;50.560;17.852;2022-11-04T14:23:57;98462.31;;;12.88;86.69
21728;BME280;11026;50.560;17.852;2022-11-04T14:26:49;98453.06;;;12.81;86.57
21728;BME280;11026;50.560;17.852;2022-11-04T14:29:24;98454.38;;;12.75;87.32
21728;BME280;11026;50.560;17.852;2022-11-04T14:31:59;98462.09;;;12.78;87.74
21728;BME280;11026;50.560;17.852;2022-11-04T14:34:30;98464.75;;;12.66;87.36
21728;BME280;11026;50.560;17.852;2022-11-04T14:37:20;98470.38;;;12.48;88.66
21728;BME280;11026;50.560;17.852;2022-11-04T14:39:58;98476.31;;;12.52;89.94
21728;BME280;11026;50.560;17.852;2022-11-04T14:42:48;98471.09;;;12.50;90.12
21728;BME280;11026;50.560;17.852;2022-11-04T14:45:23;98479.72;;;12.54;89.55
21728;BME280;11026;50.560;17.852;2022-11-04T14:48:01;98476.53;;;12.49;89.81
21728;BME280;11026;50.560;17.852;2022-11-04T14:50:42;98478.66;;;12.57;89.78
21728;BME280;11026;50.560;17.852;2022-11-04T14:53:24;98479.94;;;12.64;89.83
21728;BME280;11026;50.560;17.852;2022-11-04T14:56:19;98472.81;;;12.77;89.27
21728;BME280;11026;50.560;17.852;2022-11-04T14:59:04;98462.84;;;12.68;89.02
21728;BME280;11026;50.560;17.852;2022-11-04T15:01:37;98469.00;;;12.81;88.71
21728;BME280;11026;50.560;17.852;2022-11-04T15:04:27;98463.69;;;12.81;88.25
21728;BME280;11026;50.560;17.852;2022-11-04T15:07:19;98463.16;;;12.76;88.66
21728;BME280;11026;50.560;17.852;2022-11-04T15:09:53;98465.38;;;12.69;88.87
21728;BME280;11026;50.560;17.852;2022-11-04T15:12:23;98461.13;;;12.67;89.90
21728;BME280;11026;50.560;17.852;2022-11-04T15:15:36;98455.31;;;12.62;90.38
21728;BME280;11026;50.560;17.852;2022-11-04T15:18:30;98469.75;;;12.45;91.23
21728;BME280;11026;50.560;17.852;2022-11-04T15:21:04;98467.41;;;12.40;92.54
21728;BME280;11026;50.560;17.852;2022-11-04T15:23:45;98470.13;;;12.26;94.21
21728;BME280;11026;50.560;17.852;2022-11-04T15:29:02;98454.47;;;12.36;96.52
21728;BME280;11026;50.560;17.852;2022-11-04T15:31:34;98463.59;;;12.44;96.50
21728;BME280;11026;50.560;17.852;2022-11-04T15:34:07;98457.44;;;12.44;96.90